Terminal Aerodrome Forecast
Issued by NWS

Home | Current Version | Previous Version | Text Only | Print | Product List | Glossary On
Versions: 1 2 3 4 5 6 7 8 9 10 11 12 13 14 15 16 17 18 19 20 21 22 23 24 25 26
000
FTUS45 KGJT 270524
TAFASE
TAF
KASE 270524Z 2706/2806 19006KT P6SM BKN250
     FM271400 VRB03KT P6SM BKN220
     FM271800 34004KT P6SM BKN180
     FM280200 20004KT P6SM VCSH SCT100 BKN120=

USA.gov is the U.S. government's official web portal to all federal, state and local government web resources and services.